createdAt,value
2024-03-06T00:01:11.324Z,-1.46
2024-03-06T00:03:38.694Z,-1.55
2024-03-06T00:06:06.024Z,-1.60
2024-03-06T00:08:33.306Z,-1.57
2024-03-06T00:11:00.447Z,-1.63
2024-03-06T00:13:27.547Z,-1.59
2024-03-06T00:15:54.592Z,-1.59
2024-03-06T00:18:22.144Z,-1.60
2024-03-06T00:20:55.254Z,-1.68
2024-03-06T00:23:22.511Z,-1.75
2024-03-06T00:25:49.899Z,-1.82
2024-03-06T00:28:17.007Z,-1.79
2024-03-06T00:30:44.338Z,-1.80
2024-03-06T00:33:11.703Z,-1.83
2024-03-06T00:35:38.835Z,-1.93
2024-03-06T00:38:05.882Z,-1.94
2024-03-06T00:40:33.541Z,-1.97
2024-03-06T00:43:00.630Z,-2.02
2024-03-06T00:45:27.644Z,-2.00
2024-03-06T00:47:54.969Z,-2.04
2024-03-06T00:50:23.387Z,-2.16
2024-03-06T00:52:51.237Z,-2.11
2024-03-06T00:55:18.420Z,-2.08
2024-03-06T00:57:45.508Z,-2.11
2024-03-06T01:00:13.065Z,-2.14
2024-03-06T01:02:41.119Z,-2.17
2024-03-06T01:05:08.623Z,-2.16
2024-03-06T01:07:35.979Z,-2.22
2024-03-06T01:10:03.789Z,-2.18
2024-03-06T01:12:31.310Z,-2.22
2024-03-06T01:14:58.346Z,-2.28
2024-03-06T01:17:25.674Z,-2.27
2024-03-06T01:19:53.073Z,-2.32
2024-03-06T01:22:20.284Z,-2.33
2024-03-06T01:24:50.138Z,-2.36
2024-03-06T01:27:17.955Z,-2.39
2024-03-06T01:29:45.041Z,-2.43
2024-03-06T01:32:12.170Z,-2.44
2024-03-06T01:34:39.449Z,-2.53
2024-03-06T01:37:06.685Z,-2.47
2024-03-06T01:39:34.570Z,-2.53
2024-03-06T01:42:01.652Z,-2.51
2024-03-06T01:44:28.924Z,-2.51
2024-03-06T01:46:56.379Z,-2.56
2024-03-06T01:49:32.375Z,-2.52
2024-03-06T01:52:04.714Z,-2.53
2024-03-06T01:54:33.309Z,-2.54
2024-03-06T01:57:03.629Z,-2.57
2024-03-06T01:59:36.536Z,-2.60
2024-03-06T02:02:05.597Z,-2.61
2024-03-06T02:04:33.349Z,-2.67
2024-03-06T02:07:01.524Z,-2.64
2024-03-06T02:09:29.056Z,-2.67
2024-03-06T02:11:56.777Z,-2.68
2024-03-06T02:14:24.685Z,-2.65
2024-03-06T02:16:51.984Z,-2.73
2024-03-06T02:19:44.186Z,-2.67
2024-03-06T02:22:12.791Z,-2.69
2024-03-06T02:24:46.131Z,-2.71
2024-03-06T02:27:13.303Z,-2.73
2024-03-06T02:29:40.253Z,-2.74
2024-03-06T02:32:07.488Z,-2.73
2024-03-06T02:34:34.776Z,-2.74
2024-03-06T02:37:02.362Z,-2.71
2024-03-06T02:39:29.756Z,-2.74
2024-03-06T02:41:57.281Z,-2.72
2024-03-06T02:44:24.700Z,-2.76
2024-03-06T02:46:54.970Z,-2.75
2024-03-06T02:49:21.961Z,-2.74
2024-03-06T02:51:49.310Z,-2.80
2024-03-06T02:54:16.646Z,-2.79
2024-03-06T02:56:43.874Z,-2.76
2024-03-06T02:59:11.056Z,-2.82
2024-03-06T03:01:39.809Z,-2.82
2024-03-06T03:04:07.952Z,-2.81
2024-03-06T03:06:35.060Z,-2.94
2024-03-06T03:09:02.505Z,-2.92
2024-03-06T03:11:29.550Z,-2.93
2024-03-06T03:13:56.640Z,-2.88
2024-03-06T03:16:23.930Z,-2.92
2024-03-06T03:18:51.320Z,-2.94
2024-03-06T03:21:18.339Z,-2.89
2024-03-06T03:23:45.297Z,-2.91
2024-03-06T03:26:12.441Z,-2.93
2024-03-06T03:28:43.257Z,-2.93
2024-03-06T03:31:11.660Z,-2.95
2024-03-06T03:33:42.770Z,-2.95
2024-03-06T03:36:10.557Z,-2.93
2024-03-06T03:38:42.154Z,-2.92
2024-03-06T03:41:14.321Z,-2.93
2024-03-06T03:43:42.146Z,-2.95
2024-03-06T03:46:10.415Z,-3.04
2024-03-06T03:48:38.752Z,-3.05
2024-03-06T03:51:08.735Z,-3.03
2024-03-06T03:53:36.654Z,-3.01
2024-03-06T03:56:04.723Z,-3.07
2024-03-06T03:58:32.187Z,-3.14
2024-03-06T04:00:59.436Z,-3.11
2024-03-06T04:03:26.511Z,-3.15
2024-03-06T04:05:53.643Z,-3.12
2024-03-06T04:08:20.819Z,-3.06
2024-03-06T04:10:49.460Z,-3.02
2024-03-06T04:13:17.929Z,-2.83
2024-03-06T04:15:45.452Z,-2.53
2024-03-06T04:18:12.801Z,-2.17
2024-03-06T04:20:39.945Z,-1.76
2024-03-06T04:23:07.080Z,-1.32
2024-03-06T04:25:34.206Z,-0.84
2024-03-06T04:28:01.768Z,-0.34
2024-03-06T04:30:29.208Z,0.18
2024-03-06T04:32:56.219Z,0.40
2024-03-06T04:35:23.465Z,0.53
2024-03-06T04:37:51.157Z,0.87
2024-03-06T04:40:19.388Z,1.43
2024-03-06T04:42:48.294Z,2.00
2024-03-06T04:45:19.053Z,2.60
2024-03-06T04:47:46.236Z,2.97
2024-03-06T04:50:17.192Z,3.55
2024-03-06T04:52:45.999Z,4.10
2024-03-06T04:55:14.115Z,4.64
2024-03-06T04:57:44.066Z,5.08
2024-03-06T05:00:12.287Z,5.65
2024-03-06T06:00:12.810Z,12.93
2024-03-06T06:02:40.044Z,13.34
2024-03-06T06:05:22.050Z,13.79
2024-03-06T06:07:54.250Z,14.04
2024-03-06T06:10:22.606Z,14.38
2024-03-06T06:12:50.689Z,14.93
2024-03-06T06:15:18.400Z,15.44
2024-03-06T06:17:46.373Z,14.27
2024-03-06T06:20:18.029Z,12.77
2024-03-06T06:22:45.901Z,11.86
2024-03-06T06:25:13.835Z,11.11
2024-03-06T06:27:41.023Z,10.94
2024-03-06T06:30:13.666Z,11.20
2024-03-06T06:32:43.264Z,10.95
2024-03-06T06:35:12.993Z,10.27
2024-03-06T06:37:40.738Z,9.84
2024-03-06T06:40:09.242Z,9.36
2024-03-06T06:42:37.607Z,9.07
2024-03-06T06:45:07.727Z,8.58
2024-03-06T06:47:35.675Z,8.13
2024-03-06T06:50:06.991Z,7.70
2024-03-06T06:52:35.470Z,7.34
2024-03-06T06:55:04.085Z,7.06
2024-03-06T06:57:32.526Z,6.90
2024-03-06T06:59:59.994Z,6.72
2024-03-06T07:02:26.980Z,6.66
2024-03-06T07:04:54.301Z,6.65
2024-03-06T07:07:21.620Z,6.53
2024-03-06T07:09:48.552Z,6.43
2024-03-06T07:12:15.741Z,6.35
2024-03-06T07:14:42.846Z,6.42
2024-03-06T07:17:10.921Z,6.39
2024-03-06T07:19:38.090Z,6.32
2024-03-06T07:22:05.045Z,6.21
2024-03-06T07:24:32.176Z,6.12
2024-03-06T07:26:59.126Z,6.15
2024-03-06T07:29:26.490Z,5.96
2024-03-06T07:31:54.966Z,5.86
2024-03-06T07:34:24.750Z,5.80
2024-03-06T07:36:51.775Z,5.71
2024-03-06T07:39:20.605Z,5.75
2024-03-06T07:41:48.109Z,5.65
2024-03-06T07:44:15.380Z,5.69
2024-03-06T07:46:42.417Z,5.70
2024-03-06T07:49:09.878Z,5.58
2024-03-06T07:51:37.106Z,5.47
2024-03-06T07:54:06.953Z,5.50
2024-03-06T07:56:34.642Z,5.39
2024-03-06T07:59:02.529Z,5.37
2024-03-06T08:01:30.353Z,5.33
2024-03-06T08:03:57.971Z,5.30
2024-03-06T08:06:25.113Z,5.35
2024-03-06T08:08:53.267Z,5.62
2024-03-06T08:11:23.175Z,5.88
2024-03-06T08:13:50.378Z,6.30
2024-03-06T08:16:18.772Z,6.70
2024-03-06T08:18:45.859Z,7.32
2024-03-06T08:21:13.162Z,7.77
2024-03-06T08:23:40.197Z,7.91
2024-03-06T08:26:07.467Z,8.13
2024-03-06T08:28:34.640Z,8.26
2024-03-06T08:31:01.851Z,8.31
2024-03-06T08:33:28.918Z,8.24
2024-03-06T08:35:56.065Z,8.05
2024-03-06T08:38:23.347Z,8.07
2024-03-06T08:40:50.369Z,7.91
2024-03-06T08:43:18.257Z,7.72
2024-03-06T08:45:45.208Z,7.72
2024-03-06T08:48:12.962Z,7.61
2024-03-06T08:50:40.897Z,7.42
2024-03-06T08:53:08.240Z,7.25
2024-03-06T08:55:35.416Z,7.25
2024-03-06T08:58:03.000Z,7.28
2024-03-06T09:00:30.225Z,7.36
2024-03-06T09:02:57.400Z,7.28
2024-03-06T09:05:24.703Z,7.19
2024-03-06T09:07:51.893Z,6.96
2024-03-06T09:10:20.461Z,6.71
2024-03-06T09:12:48.019Z,6.41
2024-03-06T09:15:17.620Z,6.43
2024-03-06T09:17:46.344Z,6.39
2024-03-06T09:20:14.672Z,6.31
2024-03-06T09:22:43.723Z,6.22
2024-03-06T09:25:15.499Z,6.23
2024-03-06T09:27:43.491Z,6.22
2024-03-06T09:30:11.339Z,6.22
2024-03-06T09:32:39.478Z,6.28
2024-03-06T09:35:08.019Z,6.46
2024-03-06T09:37:35.113Z,7.45
2024-03-06T09:40:02.099Z,7.32
2024-03-06T09:42:31.095Z,7.11
2024-03-06T09:44:58.061Z,6.82
2024-03-06T09:47:29.798Z,6.53
2024-03-06T09:49:57.016Z,6.25
2024-03-06T09:52:26.491Z,6.22
2024-03-06T09:54:57.187Z,6.28
2024-03-06T09:57:24.591Z,6.36
2024-03-06T09:59:52.282Z,6.47
2024-03-06T10:02:58.111Z,6.66
2024-03-06T10:05:25.802Z,6.45
2024-03-06T10:07:55.962Z,6.34
2024-03-06T10:10:26.025Z,6.17
2024-03-06T10:12:53.050Z,6.06
2024-03-06T10:15:20.589Z,5.93
2024-03-06T10:17:48.316Z,5.90
2024-03-06T10:20:22.373Z,5.96
2024-03-06T10:22:58.411Z,6.10
2024-03-06T10:25:28.018Z,6.20
2024-03-06T10:28:08.105Z,6.32
2024-03-06T10:30:44.024Z,6.33
2024-03-06T10:33:13.366Z,6.25
2024-03-06T10:35:45.797Z,6.23
2024-03-06T10:38:13.994Z,6.40
2024-03-06T10:40:43.217Z,6.58
2024-03-06T10:43:11.863Z,6.72
2024-03-06T10:45:50.294Z,6.75
2024-03-06T10:48:19.696Z,6.76
2024-03-06T10:50:48.718Z,6.73
2024-03-06T10:53:21.595Z,6.63
2024-03-06T10:55:51.954Z,6.68
2024-03-06T10:58:21.293Z,6.72
2024-03-06T11:00:49.355Z,6.72
2024-03-06T11:03:17.353Z,6.77
2024-03-06T11:05:49.212Z,6.84
2024-03-06T11:08:18.556Z,6.97
2024-03-06T11:10:47.093Z,7.07
2024-03-06T11:13:25.974Z,7.25
2024-03-06T11:15:55.106Z,7.38
2024-03-06T11:18:32.261Z,7.39
2024-03-06T11:21:05.441Z,7.42
2024-03-06T11:23:33.127Z,7.24
2024-03-06T11:26:05.509Z,7.18
2024-03-06T11:28:35.125Z,7.15
2024-03-06T11:31:04.492Z,7.15
2024-03-06T11:33:42.944Z,7.02
2024-03-06T11:36:29.679Z,6.90
2024-03-06T11:39:01.795Z,6.88
2024-03-06T11:41:53.965Z,6.81
2024-03-06T11:44:23.203Z,6.81
2024-03-06T11:47:01.160Z,6.76
2024-03-06T11:49:30.241Z,6.79
2024-03-06T11:52:02.236Z,6.71
2024-03-06T11:54:31.734Z,6.70
2024-03-06T11:57:00.456Z,6.62
2024-03-06T11:59:29.841Z,6.49
2024-03-06T12:01:59.903Z,6.36
2024-03-06T12:04:26.901Z,6.11
2024-03-06T12:06:54.209Z,6.06
2024-03-06T12:09:21.324Z,5.96
2024-03-06T12:11:48.654Z,5.88
2024-03-06T12:14:18.648Z,5.82
2024-03-06T12:16:57.383Z,5.65
2024-03-06T12:19:24.470Z,5.62
2024-03-06T12:21:51.755Z,5.52
2024-03-06T12:24:21.613Z,5.45
2024-03-06T12:27:01.050Z,5.44
2024-03-06T12:29:30.633Z,5.45
2024-03-06T12:31:58.516Z,5.49
2024-03-06T12:34:25.614Z,5.50
2024-03-06T12:36:52.598Z,5.41
2024-03-06T12:39:24.418Z,5.33
2024-03-06T12:41:52.619Z,5.32
2024-03-06T12:44:23.648Z,5.37
2024-03-06T12:46:50.924Z,5.27
2024-03-06T12:49:19.736Z,5.32
2024-03-06T12:51:46.822Z,5.23
2024-03-06T12:54:13.936Z,5.23
2024-03-06T12:56:42.930Z,5.17
2024-03-06T12:59:10.862Z,5.11
2024-03-06T13:01:37.951Z,5.01
2024-03-06T13:04:06.994Z,4.91
2024-03-06T13:06:35.176Z,4.83
2024-03-06T13:09:02.299Z,4.83
2024-03-06T13:11:29.400Z,4.87
2024-03-06T13:13:56.551Z,4.78
2024-03-06T13:16:23.722Z,4.73
2024-03-06T13:18:58.436Z,4.68
2024-03-06T13:21:25.930Z,4.63
2024-03-06T13:24:31.529Z,4.51
2024-03-06T13:26:58.614Z,4.48
2024-03-06T13:29:25.816Z,4.40
2024-03-06T13:31:55.941Z,4.39
2024-03-06T13:34:23.109Z,4.42
2024-03-06T13:36:50.147Z,4.44
2024-03-06T13:39:17.200Z,4.41
2024-03-06T13:41:44.210Z,4.42
2024-03-06T13:44:11.313Z,4.34
2024-03-06T13:46:39.265Z,4.32
2024-03-06T13:49:07.180Z,4.35
2024-03-06T13:51:34.627Z,4.34
2024-03-06T13:54:01.601Z,4.33
2024-03-06T13:56:28.770Z,4.28
2024-03-06T13:58:55.873Z,4.26
2024-03-06T14:01:25.591Z,4.25
2024-03-06T14:03:52.799Z,4.20
2024-03-06T14:06:22.410Z,4.18
2024-03-06T14:08:53.033Z,4.02
2024-03-06T14:11:21.134Z,3.95
2024-03-06T14:13:48.444Z,3.83
2024-03-06T14:16:15.532Z,3.74
2024-03-06T14:18:45.501Z,3.63
2024-03-06T14:21:12.629Z,3.57
2024-03-06T14:23:42.379Z,3.50
2024-03-06T14:26:09.557Z,3.40
2024-03-06T14:28:39.730Z,3.31
2024-03-06T14:31:06.931Z,3.21
2024-03-06T14:33:34.057Z,3.22
2024-03-06T14:36:01.864Z,3.26
2024-03-06T14:38:28.975Z,3.10
2024-03-06T14:40:56.316Z,2.93
2024-03-06T14:43:23.484Z,2.78
2024-03-06T14:45:50.572Z,2.77
2024-03-06T14:48:18.043Z,2.69
2024-03-06T14:50:45.376Z,2.61
2024-03-06T14:53:13.698Z,2.50
2024-03-06T14:55:41.512Z,2.42
2024-03-06T14:58:11.600Z,2.35
2024-03-06T15:00:40.752Z,2.23
2024-03-06T15:03:08.841Z,2.18
2024-03-06T15:05:36.790Z,2.14
2024-03-06T15:08:05.628Z,2.06
2024-03-06T15:10:32.998Z,1.98
2024-03-06T15:13:00.206Z,1.92
2024-03-06T15:15:27.707Z,1.85
2024-03-06T15:17:54.975Z,1.75
2024-03-06T15:20:22.447Z,1.65
2024-03-06T15:22:49.691Z,1.63
2024-03-06T15:25:18.748Z,1.55
2024-03-06T15:27:45.823Z,1.47
2024-03-06T15:30:15.544Z,1.41
2024-03-06T15:32:42.856Z,1.42
2024-03-06T15:35:10.368Z,1.34
2024-03-06T15:37:39.092Z,1.28
2024-03-06T15:40:07.690Z,1.22
2024-03-06T15:42:35.520Z,1.14
2024-03-06T15:45:02.632Z,1.14
2024-03-06T15:47:33.278Z,1.13
2024-03-06T15:50:00.798Z,1.10
2024-03-06T15:52:28.915Z,1.02
2024-03-06T15:54:57.699Z,1.04
2024-03-06T15:57:25.209Z,1.01
2024-03-06T15:59:52.429Z,0.91
2024-03-06T16:02:19.895Z,0.91
2024-03-06T16:04:47.339Z,0.90
2024-03-06T16:07:15.396Z,0.86
2024-03-06T16:09:42.507Z,0.83
2024-03-06T16:12:09.745Z,0.83
2024-03-06T16:14:36.891Z,0.82
2024-03-06T16:17:07.759Z,0.80
2024-03-06T16:19:38.970Z,0.75
2024-03-06T16:22:13.345Z,0.77
2024-03-06T16:24:40.752Z,0.73
2024-03-06T16:27:07.843Z,0.73
2024-03-06T16:29:35.221Z,0.72
2024-03-06T16:32:03.880Z,0.67
2024-03-06T16:34:32.816Z,0.67
2024-03-06T16:36:59.868Z,0.67
2024-03-06T16:39:26.899Z,0.65
2024-03-06T16:41:54.202Z,0.56
2024-03-06T16:44:22.923Z,0.54
2024-03-06T16:46:50.606Z,0.47
2024-03-06T16:49:17.600Z,0.49
2024-03-06T16:51:44.740Z,0.50
2024-03-06T16:54:11.876Z,0.49
2024-03-06T16:56:39.773Z,0.54
2024-03-06T16:59:09.918Z,0.42
2024-03-06T17:01:37.188Z,0.40
2024-03-06T17:04:04.559Z,0.43
2024-03-06T17:06:32.364Z,0.36
2024-03-06T17:08:59.547Z,0.43
2024-03-06T17:11:26.707Z,0.44
2024-03-06T17:13:53.784Z,0.40
2024-03-06T17:16:21.102Z,0.41
2024-03-06T17:18:48.361Z,0.35
2024-03-06T17:21:15.802Z,0.33
2024-03-06T17:23:49.199Z,0.33
2024-03-06T17:26:16.416Z,0.33
2024-03-06T17:28:43.521Z,0.36
2024-03-06T17:31:10.810Z,0.36
2024-03-06T17:33:37.854Z,0.33
2024-03-06T17:36:05.411Z,0.38
2024-03-06T17:38:33.119Z,0.37
2024-03-06T17:41:00.194Z,0.33
2024-03-06T17:43:27.223Z,0.32
2024-03-06T17:45:54.221Z,0.34
2024-03-06T17:48:21.306Z,0.29
2024-03-06T17:50:48.563Z,0.24
2024-03-06T17:53:15.655Z,0.22
2024-03-06T17:55:42.665Z,0.22
2024-03-06T17:58:09.669Z,0.14
2024-03-06T18:00:36.789Z,0.16
2024-03-06T18:03:05.196Z,0.16
2024-03-06T18:05:32.253Z,0.16
2024-03-06T18:07:59.411Z,0.17
2024-03-06T18:10:26.449Z,0.14
2024-03-06T18:12:53.619Z,0.15
2024-03-06T18:15:20.673Z,0.11
2024-03-06T18:17:48.089Z,0.16
2024-03-06T18:20:15.482Z,0.18
2024-03-06T18:22:42.557Z,0.13
2024-03-06T18:25:09.883Z,0.16
2024-03-06T18:27:37.058Z,0.17
2024-03-06T18:30:05.169Z,0.18
2024-03-06T18:32:32.984Z,0.20
2024-03-06T18:35:00.191Z,0.14
2024-03-06T18:37:27.564Z,0.15
2024-03-06T18:39:54.640Z,0.16
2024-03-06T18:42:22.778Z,0.14
2024-03-06T18:44:50.682Z,0.15
2024-03-06T18:47:18.243Z,0.13
2024-03-06T18:49:45.472Z,0.09
2024-03-06T18:52:12.564Z,0.14
2024-03-06T18:54:41.375Z,0.13
2024-03-06T18:57:09.791Z,0.14
2024-03-06T18:59:37.470Z,0.07
2024-03-06T19:02:04.722Z,0.04
2024-03-06T19:04:31.751Z,0.03
2024-03-06T19:06:59.073Z,0.04
2024-03-06T19:09:26.221Z,0.03
2024-03-06T19:11:53.884Z,0.00
2024-03-06T19:14:24.590Z,0.04
2024-03-06T19:16:52.371Z,0.04
2024-03-06T19:19:19.525Z,0.06
2024-03-06T19:21:46.533Z,0.04
2024-03-06T19:24:13.556Z,0.04
2024-03-06T19:26:41.055Z,0.02
2024-03-06T19:29:09.504Z,-0.01
2024-03-06T19:31:36.627Z,0.03
2024-03-06T19:34:03.927Z,-0.01
2024-03-06T19:36:31.180Z,-0.03
2024-03-06T19:38:58.723Z,0.04
2024-03-06T19:41:26.134Z,0.02
2024-03-06T19:43:56.431Z,0.08
2024-03-06T19:46:24.457Z,0.01
2024-03-06T19:48:51.472Z,0.01
2024-03-06T19:51:18.549Z,-0.04
2024-03-06T19:53:46.664Z,-0.07
2024-03-06T19:56:14.551Z,-0.04
2024-03-06T19:58:41.540Z,0.01
2024-03-06T20:01:09.090Z,-0.02
2024-03-06T20:03:36.242Z,-0.05
2024-03-06T20:06:03.491Z,-0.04
2024-03-06T20:08:30.737Z,-0.07
2024-03-06T20:10:57.794Z,0.01
2024-03-06T20:13:25.105Z,0.05
2024-03-06T20:15:52.823Z,-0.02
2024-03-06T20:18:20.256Z,-0.04
2024-03-06T20:20:47.717Z,-0.02
2024-03-06T20:23:15.089Z,-0.05
2024-03-06T20:25:43.445Z,-0.02
2024-03-06T20:28:10.756Z,-0.03
2024-03-06T20:30:42.331Z,-0.06
2024-03-06T20:33:10.307Z,-0.07
2024-03-06T20:35:37.890Z,-0.11
2024-03-06T20:38:05.377Z,-0.13
2024-03-06T20:40:33.590Z,-0.15
2024-03-06T20:43:00.706Z,-0.14
2024-03-06T20:45:27.778Z,-0.13
2024-03-06T20:48:01.482Z,-0.14
2024-03-06T20:50:28.732Z,-0.16
2024-03-06T20:52:56.085Z,-0.17
2024-03-06T20:55:23.171Z,-0.17
2024-03-06T20:57:50.188Z,-0.19
2024-03-06T21:00:18.793Z,-0.19
2024-03-06T21:02:46.236Z,-0.25
2024-03-06T21:05:14.074Z,-0.27
2024-03-06T21:07:42.293Z,-0.25
2024-03-06T21:10:18.902Z,-0.25
2024-03-06T21:12:49.660Z,-0.21
2024-03-06T21:15:17.178Z,-0.24
2024-03-06T21:17:44.896Z,-0.22
2024-03-06T21:20:13.204Z,-0.28
2024-03-06T21:22:41.851Z,-0.27
2024-03-06T21:25:10.198Z,-0.28
2024-03-06T21:27:37.863Z,-0.26
2024-03-06T21:30:09.605Z,-0.25
2024-03-06T21:32:39.858Z,-0.24
2024-03-06T21:35:07.504Z,-0.26
2024-03-06T21:37:34.759Z,-0.26
2024-03-06T21:40:03.740Z,-0.30
2024-03-06T21:42:31.997Z,-0.32
2024-03-06T21:44:59.560Z,-0.33
2024-03-06T21:47:27.992Z,-0.33
2024-03-06T21:49:55.229Z,-0.38
2024-03-06T21:52:22.579Z,-0.37
2024-03-06T21:54:49.710Z,-0.42
2024-03-06T21:57:16.876Z,-0.42
2024-03-06T21:59:44.117Z,-0.41
2024-03-06T22:02:14.872Z,-0.41
2024-03-06T22:04:42.410Z,-0.45
2024-03-06T22:07:09.546Z,-0.50
2024-03-06T22:09:38.679Z,-0.50
2024-03-06T22:12:06.632Z,-0.53
2024-03-06T22:14:33.805Z,-0.59
2024-03-06T22:17:01.706Z,-0.56
2024-03-06T22:19:29.876Z,-0.58
2024-03-06T22:21:57.310Z,-0.63
2024-03-06T22:24:24.362Z,-0.60
2024-03-06T22:26:51.512Z,-0.62
2024-03-06T22:29:19.399Z,-0.63
2024-03-06T22:31:46.883Z,-0.70
2024-03-06T22:34:13.960Z,-0.63
2024-03-06T22:36:41.139Z,-0.62
2024-03-06T22:39:08.214Z,-0.62
2024-03-06T22:41:36.924Z,-0.63
2024-03-06T22:44:06.575Z,-0.64
2024-03-06T22:46:44.133Z,-0.63
2024-03-06T22:49:18.131Z,-0.64
2024-03-06T22:51:45.417Z,-0.63
2024-03-06T22:54:12.839Z,-0.71
2024-03-06T22:56:40.947Z,-0.68
2024-03-06T22:59:08.885Z,-0.70
2024-03-06T23:01:36.551Z,-0.73
2024-03-06T23:04:05.075Z,-0.72
2024-03-06T23:06:32.539Z,-0.75
2024-03-06T23:09:00.876Z,-0.73
2024-03-06T23:11:30.227Z,-0.79
2024-03-06T23:13:57.720Z,-0.79
2024-03-06T23:16:24.896Z,-0.82
2024-03-06T23:18:53.200Z,-0.83
2024-03-06T23:21:20.410Z,-0.82
2024-03-06T23:23:48.080Z,-0.85
2024-03-06T23:26:15.856Z,-0.86
2024-03-06T23:28:43.035Z,-0.86
2024-03-06T23:31:10.150Z,-0.90
2024-03-06T23:33:37.520Z,-0.91
2024-03-06T23:36:04.966Z,-0.91
2024-03-06T23:38:32.041Z,-0.95
2024-03-06T23:40:59.106Z,-0.96
2024-03-06T23:43:26.106Z,-0.97
2024-03-06T23:45:53.115Z,-0.98
2024-03-06T23:48:20.480Z,-1.01
2024-03-06T23:50:47.664Z,-1.00
2024-03-06T23:53:16.096Z,-1.00
2024-03-06T23:55:43.246Z,-1.00
2024-03-06T23:58:10.515Z,-1.03
